Sublette, Illinois
Current Conditions -  °F | °C
As of 8:35 PM on Sunday 21 Dec 2014 (Local Time) from KRPJ Reporting Station
Clear Clear  
Wind Chill: 23°   Ceiling: Unl
Heat Index: 33°   Visibility: 10mi
Dew Point: 31°   Wind: 14mph
Humidity: 91%   Direction: 150°SSE
Pressure: 30.01"   Gusts: NA
Location:  41.64°N, 89.23°W
Report Text: KRPJ 220235Z AUTO 15012KT 10SM CLR 01/M01 A3001 RMK AO2 T00061007
Loading
Personal Weather Stations






























Interactive Weather Map New forecast layout! Learn more

10-Day Weather Forecast

Advertisements
Track Severe Weather on mobile